AirNav   Air Wisconsin pilot careers
 
 386 users online  

D14 Fertile Municipal Airport
Fertile, Minnesota, USA


FAA INFORMATION EFFECTIVE 04 JANUARY 2018

Location

FAA Identifier: D14
Lat/Long: 47-33-06.9000N / 096-17-31.9000W
47-33.115000N / 096-17.531667W
47.5519167 / -96.2921944
(estimated)
Elevation: 1135 ft. / 345.9 m (surveyed)
Variation: 05E (1985)
From city: 1 mile NW of FERTILE, MN
Time zone: UTC -6 (UTC -5 during Daylight Saving Time)
Zip code: 56540

Airport Operations

Airport use: Open to the public
Activation date: 12/1955
Control tower: no
ARTCC: MINNEAPOLIS CENTER
FSS: PRINCETON FLIGHT SERVICE STATION
NOTAMs facility: PNM (NOTAM-D service available)
Attendance: UNATNDD
Pattern altitude: 2135 ft. MSL
Wind indicator: lighted
Segmented circle: no
Lights: LIRL RY 14/32; INCR INTST & ACTVT VASI RYS 14 & 32 - CTAF.
Beacon: white-green (lighted land airport)
Operates sunset to sunrise.

Airport Communications

CTAF/UNICOM: 122.8

Nearby radio navigation aids

VOR radial/distance  VOR name  Freq  Var
TVFr180/31.3THIEF RIVER FALLS VOR/DME108.4008E

 
NDB name  Hdg/Dist  Freq  Var  ID
FOSSTON261/21.322403EFSE ..-. ... .
CROOKSTON140/21.740003ECKN -.-. -.- -.

Airport Services

Fuel available: 100LL
FUEL AVAILABLE 24 HR WITH CREDIT CARD.
Parking: tiedowns
Airframe service: NONE
Powerplant service: NONE
Bottled oxygen: NONE
Bulk oxygen: NONE

Runway Information

Runway 14/32

Dimensions: 3002 x 60 ft. / 915 x 18 m
Surface: asphalt, in good condition
Runway edge lights: low intensity
4 LIGHTS DOWN, SEVERAL OTHERS LEANING.
RUNWAY 14  RUNWAY 32
Latitude: 47-33.314597N47-32.914265N
Longitude: 096-17.746065W096-17.318745W
Elevation: 1128.1 ft.1135.0 ft.
Gradient: 0.2%0.2%
Traffic pattern: leftleft
Runway heading: 139 magnetic, 144 true319 magnetic, 324 true
Markings: basic, in fair conditionbasic, in fair condition
Visual slope indicator: 2-box SAVASI on left (3.00 degrees glide path)2-box SAVASI on left (3.00 degrees glide path)
Touchdown point: yes, no lightsyes, no lights
Obstructions: none59 ft. trees, 1671 ft. from runway, 178 ft. right of centerline, 24:1 slope to clear

Airport Ownership and Management from official FAA records

Ownership: Publicly-owned
Owner: CITY OF FERTILE
PO BOX 628
FERTILE, MN 56540
Phone 218-945-3136
Manager: LISA LIDEN
PO BOX 628
FERTILE, MN 56540
Phone 218-945-3136
PHONE AT ARPT 218-945-6516.

Airport Operational Statistics

Aircraft based on the field: 2
Single engine airplanes: 2
    
Aircraft operations: avg 26/day *
81% local general aviation
19% transient general aviation
* for 12-month period ending 30 June 2015

Additional Remarks

BE ALERT FOR VEHICLE TRAFFIC ON TAXIWAYS.

Instrument Procedures

There are no published instrument procedures at D14.

Some nearby airports with instrument procedures:

D00 - Norman County Ada/Twin Valley Airport (18 nm S)
KFSE - Fosston Municipal Airport (21 nm E)
KCKN - Crookston Municipal Airport-Kirkwood Field (22 nm NW)
3N8 - Mahnomen County Airport (23 nm SE)
KTVF - Thief River Falls Regional Airport (31 nm N)
 
Loc | Ops | Rwys | IFR | FBO | Links
Com | Nav | Svcs | Stats | Notes


 
Area around D14 (Fertile Municipal Airport)
 
Road maps at: MapQuest Bing Google
 
Aerial photo
WARNING: Photo may not be current or correct
Aerial photo of D14 (Fertile Municipal Airport)
Photo by Alexander J. Krauss
Photo taken 14-Apr-2008

Do you have a better or more recent aerial photo of Fertile Municipal Airport that you would like to share? If so, please send us your photo.

 
Sectional chart

 
Airport distance calculator
Flying to Fertile Municipal Airport? Find the distance to fly.

From to D14

Sunrise and sunset
Times for 17-Jan-2018
 Local
(UTC-6)
 Zulu
(UTC)
Morning civil twilight07:3413:34
Sunrise08:0814:08
Sunset17:0323:03
Evening civil twilight17:3723:37

Current date and time
Zulu (UTC)  17-Jan-2018 11:21:47
Local (UTC-6)  17-Jan-2018 05:21:47
 
METAR
KFSE 
21nm E 
171055Z AUTO 20018KT 10SM CLR M16/M19 A3013 RMK AO2
KCKN 
22nm NW 
171055Z AUTO 20022KT 3SM HZ CLR M14/M17 A3012 RMK AO2
K3N8 
23nm SE 
171055Z AUTO 20017KT 10SM CLR M15/M19 A3015 RMK AO2 T11521190
KTVF 
31nm N 
171101Z AUTO 21019G25KT 5SM -SN CLR M15/M18 A3009 RMK AO2 SNB1046 SLP222 P0000 T11501183 FZRANO
TAF
KTVF 
31nm N 
170520Z 1706/1806 21015KT P6SM SCT250= TAF KMTW 170520Z 1706/1806 27009KT P6SM SCT200 FM171200 26011KT P6SM BKN090 FM171400 25012KT P6SM BKN200 WS014/28035KT FM171500 25014G20KT P6SM SCT200 WS020/27040KT FM171800 25016G26KT 6SM BLSN SKC WS020/28050KT FM180100 25017G24KT P6SM SKC WS018/28055KT
NOTAMs
Click for the latest NOTAMs
NOTAMs are issued by the DoD/FAA and will open in a separate window not controlled by AirNav.

 

 
 

FBO, Fuel Providers, and Aircraft Ground Support

  
 Business Name 
 
 Contact 
 
 Services / Description 
 
Fuel Prices
 
Comments
  
City of Fertile 218-945-3136
[web site]
Airport management, Aviation fuel

More info about City of Fertile
100LL
SS $4.19 
 Updated 27-Dec-2017
 
   write
SS=Self service
Update Fuel Prices
 

Would you like to see your business listed on this page?

 If your business provides an interesting product or service to pilots, flight crews, aircraft, or users of the Fertile Municipal Airport, you should consider listing it here.  To start the listing process, click on the button below
 
Add a business
 

Other Pages about Fertile Municipal Airport

City of Fertile
PDF page(s) from the Minnesota Airport Directory
 
Update a link
 
Copyright © AirNav, LLC. All rights reserved. Privacy Policy  Contact